createdAt,value
2023-05-25T06:21:50.859Z,1.99
2023-05-25T06:31:50.984Z,5.14
2023-05-25T06:41:50.814Z,9.16
2023-05-25T06:51:50.745Z,5.43
2023-05-25T07:01:50.763Z,8.53
2023-05-25T07:11:50.796Z,4.93
2023-05-25T07:21:50.922Z,2.74
2023-05-25T07:31:51.020Z,4.01
2023-05-25T07:41:50.849Z,4.90
2023-05-25T07:51:51.010Z,2.49
2023-05-25T08:01:50.867Z,6.02
2023-05-25T08:11:50.943Z,5.95
2023-05-25T08:21:50.908Z,5.82
2023-05-25T08:31:50.899Z,4.71
2023-05-25T08:41:51.106Z,4.72
2023-05-25T08:51:51.052Z,7.43
2023-05-25T09:01:51.117Z,6.71
2023-05-25T09:11:51.051Z,5.53
2023-05-25T09:21:53.083Z,10.29
2023-05-25T09:31:51.202Z,6.47
2023-05-25T09:41:51.032Z,0.00
2023-05-25T09:51:51.053Z,0.00
2023-05-25T10:01:51.136Z,0.00
2023-05-25T10:11:51.233Z,0.00
2023-05-25T10:21:51.194Z,0.00
2023-05-25T10:31:50.940Z,0.00
2023-05-25T10:41:51.028Z,0.00
2023-05-25T10:51:51.188Z,0.00
2023-05-25T11:01:51.251Z,0.00
2023-05-25T11:11:51.015Z,0.00
2023-05-25T11:21:51.059Z,0.00
2023-05-25T11:31:51.184Z,0.00
2023-05-25T11:41:51.127Z,0.00
2023-05-25T11:51:51.062Z,0.00
2023-05-25T12:01:51.112Z,0.00
2023-05-25T12:11:50.998Z,0.00
2023-05-25T12:21:51.001Z,0.00
2023-05-25T12:31:51.141Z,0.00
2023-05-25T12:41:54.060Z,0.00
2023-05-25T12:51:51.130Z,0.00
2023-05-25T13:01:51.257Z,0.00
2023-05-25T13:11:51.287Z,0.00
2023-05-25T13:21:51.029Z,0.00
2023-05-25T13:31:51.441Z,0.00
2023-05-25T13:41:50.952Z,0.00
2023-05-25T13:51:51.265Z,0.00
2023-05-25T14:01:52.184Z,0.00
2023-05-25T14:11:51.044Z,0.00
2023-05-25T14:22:03.854Z,0.00
2023-05-25T14:31:51.174Z,0.00
2023-05-25T14:41:51.163Z,0.00
2023-05-25T14:51:51.129Z,0.00
2023-05-25T15:01:52.992Z,0.00
2023-05-25T15:11:51.286Z,0.00
2023-05-25T15:21:51.148Z,0.00
2023-05-25T15:31:51.429Z,0.00
2023-05-25T15:41:51.313Z,0.00
2023-05-25T15:51:51.458Z,0.00
2023-05-25T16:01:51.455Z,0.00
2023-05-25T16:11:51.304Z,0.00
2023-05-25T16:21:51.453Z,0.00
2023-05-25T16:31:51.438Z,0.00
2023-05-25T16:41:51.429Z,0.00
2023-05-25T16:51:51.535Z,0.00
2023-05-25T17:01:51.574Z,0.00
2023-05-25T17:11:53.686Z,0.00
2023-05-25T17:21:51.619Z,0.00
2023-05-25T17:31:51.880Z,0.00
2023-05-25T17:41:51.969Z,0.00
2023-05-25T17:51:51.719Z,0.00
2023-05-25T18:01:51.652Z,0.00
2023-05-25T18:11:53.599Z,0.00
2023-05-25T18:21:51.681Z,0.00
2023-05-25T18:31:51.872Z,0.00
2023-05-25T18:41:51.690Z,0.00
2023-05-25T18:51:51.695Z,0.00
2023-05-25T19:01:51.837Z,0.00
2023-05-25T19:11:51.739Z,4.20
2023-05-25T19:21:51.807Z,7.13
